CheckWX is a tool to help pilots better visualize weather data.  It is not intended as a substitute for an official pre-flight weather briefing.

16:12:34 UTC

KCSV TAF
Crossville Memorial-Whitson Field Airport
Crossville, Tennessee, USA
KCSV 221140Z 2212/2312 24004KT P6SM VCSH SCT040 BKN050 OVC090 FM221400 23007KT P6SM VCSH OVC050 FM222000 25006KT 4SM TSRA OVC050CB FM230000 27004KT 4SM -TSRA OVC025CB FM230500 32003KT 2SM -SHRA BR VCTS OVC007CB

Jul-22@
12:00 UTC

Jul-22 @ 12:00 UTC

Jul-22@
14:00 UTC

Jul-22 @ 14:00 UTC

KCSV 221140Z 2212/2312 24004KT P6SM VCSH SCT040 BKN050 OVC090

Expired

Wind
  • 240° at 4 KTS
Cloud Levels
  • Scattered at 4,000' AGL
  • Broken at 5,000' AGL
  • Overcast at 9,000' AGL

Jul-22@
14:00 UTC

Jul-22 @ 14:00 UTC

Jul-22@
20:00 UTC

Jul-22 @ 20:00 UTC

FM221400 23007KT P6SM VCSH OVC050

From

From Standard forecast or significant change

Wind
  • 230° at 7 KTS
Cloud Levels
  • Overcast at 5,000' AGL

Jul-22@
20:00 UTC

Jul-22 @ 20:00 UTC

Jul-23@
00:00 UTC

Jul-23 @ 00:00 UTC

FM222000 25006KT 4SM TSRA OVC050CB

From

From Standard forecast or significant change

Wind
  • 250° at 6 KTS
Conditions
Thunderstorm, Rain
Cloud Levels
  • Overcast at 5,000' AGL

Jul-23@
00:00 UTC

Jul-23 @ 00:00 UTC

Jul-23@
05:00 UTC

Jul-23 @ 05:00 UTC

FM230000 27004KT 4SM -TSRA OVC025CB

From

From Standard forecast or significant change

Wind
  • 270° at 4 KTS
Conditions
Light Thunderstorm, Light Rain
Cloud Levels
  • Overcast at 2,500' AGL

Jul-23@
05:00 UTC

Jul-23 @ 05:00 UTC

Jul-23@
12:00 UTC

Jul-23 @ 12:00 UTC

FM230500 32003KT 2SM -SHRA BR VCTS OVC007CB

From

From Standard forecast or significant change

Wind
  • 320° at 3 KTS
Conditions
Light Rain, Mist, Area Thunderstorm
Cloud Levels
  • Overcast at 700' AGL